sensor_id;sensor_type;location;lat;lon;timestamp;P1;durP1;ratioP1;P2;durP2;ratioP2
19828;SDS011;10075;50.924;4.396;2023-05-01T00:00:22;6.28;;;2.97;;
19828;SDS011;10075;50.924;4.396;2023-05-01T00:02:49;4.10;;;3.00;;
19828;SDS011;10075;50.924;4.396;2023-05-01T00:05:16;4.28;;;2.80;;
19828;SDS011;10075;50.924;4.396;2023-05-01T00:07:43;5.25;;;2.90;;
19828;SDS011;10075;50.924;4.396;2023-05-01T00:10:10;4.03;;;2.72;;
19828;SDS011;10075;50.924;4.396;2023-05-01T00:12:37;7.93;;;3.05;;
19828;SDS011;10075;50.924;4.396;2023-05-01T00:15:05;6.20;;;3.10;;
19828;SDS011;10075;50.924;4.396;2023-05-01T00:17:34;3.75;;;2.90;;
19828;SDS011;10075;50.924;4.396;2023-05-01T00:20:01;4.50;;;3.20;;
19828;SDS011;10075;50.924;4.396;2023-05-01T00:22:29;4.82;;;2.90;;
19828;SDS011;10075;50.924;4.396;2023-05-01T00:24:56;3.40;;;2.70;;
19828;SDS011;10075;50.924;4.396;2023-05-01T00:27:23;4.03;;;2.63;;
19828;SDS011;10075;50.924;4.396;2023-05-01T00:29:50;3.75;;;2.80;;
19828;SDS011;10075;50.924;4.396;2023-05-01T00:32:17;5.40;;;2.80;;
19828;SDS011;10075;50.924;4.396;2023-05-01T00:34:45;4.38;;;3.10;;
19828;SDS011;10075;50.924;4.396;2023-05-01T00:37:12;3.70;;;2.70;;
19828;SDS011;10075;50.924;4.396;2023-05-01T00:39:39;5.75;;;2.88;;
19828;SDS011;10075;50.924;4.396;2023-05-01T00:42:06;5.15;;;2.95;;
19828;SDS011;10075;50.924;4.396;2023-05-01T00:44:33;4.32;;;3.08;;
19828;SDS011;10075;50.924;4.396;2023-05-01T00:47:00;4.38;;;2.97;;
19828;SDS011;10075;50.924;4.396;2023-05-01T00:49:28;5.50;;;3.03;;
19828;SDS011;10075;50.924;4.396;2023-05-01T00:51:57;4.60;;;2.92;;
19828;SDS011;10075;50.924;4.396;2023-05-01T00:54:24;5.80;;;3.03;;
19828;SDS011;10075;50.924;4.396;2023-05-01T00:56:52;3.80;;;3.17;;
19828;SDS011;10075;50.924;4.396;2023-05-01T00:59:20;4.38;;;3.30;;
19828;SDS011;10075;50.924;4.396;2023-05-01T01:01:47;6.25;;;3.42;;
19828;SDS011;10075;50.924;4.396;2023-05-01T01:04:14;8.75;;;3.78;;
19828;SDS011;10075;50.924;4.396;2023-05-01T01:06:44;6.85;;;3.90;;
19828;SDS011;10075;50.924;4.396;2023-05-01T01:09:22;6.88;;;3.25;;
19828;SDS011;10075;50.924;4.396;2023-05-01T01:12:00;4.57;;;3.78;;
19828;SDS011;10075;50.924;4.396;2023-05-01T01:14:35;6.43;;;3.60;;
19828;SDS011;10075;50.924;4.396;2023-05-01T01:17:10;7.78;;;3.85;;
19828;SDS011;10075;50.924;4.396;2023-05-01T01:19:54;5.10;;;3.67;;
19828;SDS011;10075;50.924;4.396;2023-05-01T01:22:40;4.78;;;3.60;;
19828;SDS011;10075;50.924;4.396;2023-05-01T01:25:19;6.72;;;3.53;;
19828;SDS011;10075;50.924;4.396;2023-05-01T01:28:15;7.72;;;3.58;;
19828;SDS011;10075;50.924;4.396;2023-05-01T01:31:13;4.78;;;3.72;;
19828;SDS011;10075;50.924;4.396;2023-05-01T01:33:59;4.85;;;3.55;;
19828;SDS011;10075;50.924;4.396;2023-05-01T01:36:33;4.78;;;3.30;;
19828;SDS011;10075;50.924;4.396;2023-05-01T01:39:08;3.45;;;2.70;;
19828;SDS011;10075;50.924;4.396;2023-05-01T01:41:40;6.25;;;3.10;;
19828;SDS011;10075;50.924;4.396;2023-05-01T01:44:11;4.63;;;2.88;;
19828;SDS011;10075;50.924;4.396;2023-05-01T01:46:44;3.75;;;3.22;;
19828;SDS011;10075;50.924;4.396;2023-05-01T01:49:15;3.75;;;2.47;;
19828;SDS011;10075;50.924;4.396;2023-05-01T01:51:47;5.25;;;3.28;;
19828;SDS011;10075;50.924;4.396;2023-05-01T01:54:17;6.80;;;3.42;;
19828;SDS011;10075;50.924;4.396;2023-05-01T01:56:47;4.80;;;3.60;;
19828;SDS011;10075;50.924;4.396;2023-05-01T01:59:15;4.97;;;3.20;;
19828;SDS011;10075;50.924;4.396;2023-05-01T02:01:45;4.28;;;3.55;;
19828;SDS011;10075;50.924;4.396;2023-05-01T02:04:15;5.43;;;3.60;;
19828;SDS011;10075;50.924;4.396;2023-05-01T02:06:44;6.15;;;4.07;;
19828;SDS011;10075;50.924;4.396;2023-05-01T02:09:13;7.55;;;3.65;;
19828;SDS011;10075;50.924;4.396;2023-05-01T02:11:44;5.65;;;4.43;;
19828;SDS011;10075;50.924;4.396;2023-05-01T02:14:12;3.97;;;3.38;;
19828;SDS011;10075;50.924;4.396;2023-05-01T02:16:41;6.30;;;3.83;;
19828;SDS011;10075;50.924;4.396;2023-05-01T02:19:09;8.25;;;4.10;;
19828;SDS011;10075;50.924;4.396;2023-05-01T02:21:38;6.93;;;3.85;;
19828;SDS011;10075;50.924;4.396;2023-05-01T02:24:06;8.48;;;4.55;;
19828;SDS011;10075;50.924;4.396;2023-05-01T02:26:37;4.15;;;3.67;;
19828;SDS011;10075;50.924;4.396;2023-05-01T02:29:07;5.70;;;3.80;;
19828;SDS011;10075;50.924;4.396;2023-05-01T02:31:35;5.28;;;4.10;;
19828;SDS011;10075;50.924;4.396;2023-05-01T02:34:02;7.55;;;3.42;;
19828;SDS011;10075;50.924;4.396;2023-05-01T02:36:29;4.50;;;3.85;;
19828;SDS011;10075;50.924;4.396;2023-05-01T02:38:58;7.85;;;3.85;;
19828;SDS011;10075;50.924;4.396;2023-05-01T02:41:26;6.47;;;4.13;;
19828;SDS011;10075;50.924;4.396;2023-05-01T02:43:55;6.88;;;3.80;;
19828;SDS011;10075;50.924;4.396;2023-05-01T02:46:28;9.13;;;4.00;;
19828;SDS011;10075;50.924;4.396;2023-05-01T02:48:56;5.82;;;3.72;;
19828;SDS011;10075;50.924;4.396;2023-05-01T02:51:26;4.45;;;3.75;;
19828;SDS011;10075;50.924;4.396;2023-05-01T02:53:55;4.65;;;3.50;;
19828;SDS011;10075;50.924;4.396;2023-05-01T02:56:25;4.88;;;3.55;;
19828;SDS011;10075;50.924;4.396;2023-05-01T02:58:53;5.57;;;4.20;;
19828;SDS011;10075;50.924;4.396;2023-05-01T03:01:20;9.20;;;4.13;;
19828;SDS011;10075;50.924;4.396;2023-05-01T03:03:47;7.00;;;3.78;;
19828;SDS011;10075;50.924;4.396;2023-05-01T03:06:14;5.68;;;4.22;;
19828;SDS011;10075;50.924;4.396;2023-05-01T03:08:41;7.93;;;4.45;;
19828;SDS011;10075;50.924;4.396;2023-05-01T03:11:08;8.55;;;4.35;;
19828;SDS011;10075;50.924;4.396;2023-05-01T03:13:36;7.00;;;4.65;;
19828;SDS011;10075;50.924;4.396;2023-05-01T03:16:04;5.72;;;4.50;;
19828;SDS011;10075;50.924;4.396;2023-05-01T03:18:31;6.28;;;4.40;;
19828;SDS011;10075;50.924;4.396;2023-05-01T03:20:58;5.85;;;4.80;;
19828;SDS011;10075;50.924;4.396;2023-05-01T03:23:25;5.40;;;4.05;;
19828;SDS011;10075;50.924;4.396;2023-05-01T03:25:52;5.80;;;4.40;;
19828;SDS011;10075;50.924;4.396;2023-05-01T03:28:19;5.70;;;4.60;;
19828;SDS011;10075;50.924;4.396;2023-05-01T03:30:50;6.20;;;4.95;;
19828;SDS011;10075;50.924;4.396;2023-05-01T03:33:17;8.52;;;5.50;;
19828;SDS011;10075;50.924;4.396;2023-05-01T03:35:44;8.48;;;5.15;;
19828;SDS011;10075;50.924;4.396;2023-05-01T03:38:11;5.47;;;4.90;;
19828;SDS011;10075;50.924;4.396;2023-05-01T03:40:38;6.10;;;4.57;;
19828;SDS011;10075;50.924;4.396;2023-05-01T03:43:05;7.40;;;5.30;;
19828;SDS011;10075;50.924;4.396;2023-05-01T03:45:32;5.75;;;5.15;;
19828;SDS011;10075;50.924;4.396;2023-05-01T03:48:00;6.03;;;5.10;;
19828;SDS011;10075;50.924;4.396;2023-05-01T03:50:27;6.78;;;5.18;;
19828;SDS011;10075;50.924;4.396;2023-05-01T03:52:54;6.20;;;5.40;;
19828;SDS011;10075;50.924;4.396;2023-05-01T03:55:21;6.20;;;5.50;;
19828;SDS011;10075;50.924;4.396;2023-05-01T03:57:48;5.65;;;5.05;;
19828;SDS011;10075;50.924;4.396;2023-05-01T04:00:16;6.78;;;5.60;;
19828;SDS011;10075;50.924;4.396;2023-05-01T04:02:43;10.23;;;5.35;;
19828;SDS011;10075;50.924;4.396;2023-05-01T04:05:12;5.93;;;5.32;;
19828;SDS011;10075;50.924;4.396;2023-05-01T04:07:39;6.40;;;5.20;;
19828;SDS011;10075;50.924;4.396;2023-05-01T04:10:07;8.07;;;5.28;;
19828;SDS011;10075;50.924;4.396;2023-05-01T04:12:34;7.85;;;4.97;;
19828;SDS011;10075;50.924;4.396;2023-05-01T04:15:02;7.38;;;5.35;;
19828;SDS011;10075;50.924;4.396;2023-05-01T04:17:29;7.75;;;5.53;;
19828;SDS011;10075;50.924;4.396;2023-05-01T04:19:56;8.30;;;5.43;;
19828;SDS011;10075;50.924;4.396;2023-05-01T04:22:26;5.78;;;5.28;;
19828;SDS011;10075;50.924;4.396;2023-05-01T04:24:53;6.78;;;5.35;;
19828;SDS011;10075;50.924;4.396;2023-05-01T04:27:20;8.30;;;5.32;;
19828;SDS011;10075;50.924;4.396;2023-05-01T04:29:47;7.97;;;5.55;;
19828;SDS011;10075;50.924;4.396;2023-05-01T04:32:14;7.47;;;5.63;;
19828;SDS011;10075;50.924;4.396;2023-05-01T04:34:41;6.57;;;4.78;;
19828;SDS011;10075;50.924;4.396;2023-05-01T04:37:09;7.68;;;4.80;;
19828;SDS011;10075;50.924;4.396;2023-05-01T04:39:37;7.05;;;5.82;;
19828;SDS011;10075;50.924;4.396;2023-05-01T04:42:04;7.95;;;6.18;;
19828;SDS011;10075;50.924;4.396;2023-05-01T04:44:31;8.50;;;5.95;;
19828;SDS011;10075;50.924;4.396;2023-05-01T04:47:00;8.75;;;5.72;;
19828;SDS011;10075;50.924;4.396;2023-05-01T04:49:27;7.78;;;5.55;;
19828;SDS011;10075;50.924;4.396;2023-05-01T04:51:55;6.50;;;5.78;;
19828;SDS011;10075;50.924;4.396;2023-05-01T04:54:22;10.45;;;5.22;;
19828;SDS011;10075;50.924;4.396;2023-05-01T04:56:51;7.18;;;5.45;;
19828;SDS011;10075;50.924;4.396;2023-05-01T04:59:18;6.82;;;6.00;;
19828;SDS011;10075;50.924;4.396;2023-05-01T05:01:45;6.20;;;5.60;;
19828;SDS011;10075;50.924;4.396;2023-05-01T05:04:11;6.47;;;5.88;;
19828;SDS011;10075;50.924;4.396;2023-05-01T05:06:38;8.90;;;6.10;;
19828;SDS011;10075;50.924;4.396;2023-05-01T05:09:05;6.93;;;5.72;;
19828;SDS011;10075;50.924;4.396;2023-05-01T05:11:32;8.25;;;5.95;;
19828;SDS011;10075;50.924;4.396;2023-05-01T05:14:01;9.25;;;6.15;;
19828;SDS011;10075;50.924;4.396;2023-05-01T05:16:28;7.18;;;5.60;;
19828;SDS011;10075;50.924;4.396;2023-05-01T05:18:55;7.90;;;5.93;;
19828;SDS011;10075;50.924;4.396;2023-05-01T05:21:22;7.60;;;5.63;;
19828;SDS011;10075;50.924;4.396;2023-05-01T05:23:49;6.10;;;5.50;;
19828;SDS011;10075;50.924;4.396;2023-05-01T05:26:16;7.20;;;6.05;;
19828;SDS011;10075;50.924;4.396;2023-05-01T05:28:43;7.90;;;5.75;;
19828;SDS011;10075;50.924;4.396;2023-05-01T05:31:12;6.32;;;5.68;;
19828;SDS011;10075;50.924;4.396;2023-05-01T05:33:39;7.53;;;5.78;;
19828;SDS011;10075;50.924;4.396;2023-05-01T05:36:06;6.00;;;5.28;;
19828;SDS011;10075;50.924;4.396;2023-05-01T05:38:33;6.75;;;5.28;;
19828;SDS011;10075;50.924;4.396;2023-05-01T05:41:00;9.02;;;5.40;;
19828;SDS011;10075;50.924;4.396;2023-05-01T05:43:26;6.85;;;5.90;;
19828;SDS011;10075;50.924;4.396;2023-05-01T05:45:55;7.07;;;5.38;;
19828;SDS011;10075;50.924;4.396;2023-05-01T05:48:24;6.40;;;5.78;;
19828;SDS011;10075;50.924;4.396;2023-05-01T05:50:51;8.43;;;5.97;;
19828;SDS011;10075;50.924;4.396;2023-05-01T05:53:18;7.13;;;5.68;;
19828;SDS011;10075;50.924;4.396;2023-05-01T05:55:46;9.68;;;5.32;;
19828;SDS011;10075;50.924;4.396;2023-05-01T05:58:13;9.82;;;5.82;;
19828;SDS011;10075;50.924;4.396;2023-05-01T06:00:44;5.55;;;4.90;;
19828;SDS011;10075;50.924;4.396;2023-05-01T06:03:12;8.38;;;5.70;;
19828;SDS011;10075;50.924;4.396;2023-05-01T06:05:41;7.85;;;5.65;;
19828;SDS011;10075;50.924;4.396;2023-05-01T06:08:09;9.73;;;4.93;;
19828;SDS011;10075;50.924;4.396;2023-05-01T06:10:36;6.72;;;5.50;;
19828;SDS011;10075;50.924;4.396;2023-05-01T06:13:04;5.90;;;5.30;;
19828;SDS011;10075;50.924;4.396;2023-05-01T06:15:32;9.98;;;5.82;;
19828;SDS011;10075;50.924;4.396;2023-05-01T06:17:59;6.32;;;5.63;;
19828;SDS011;10075;50.924;4.396;2023-05-01T06:20:27;6.30;;;5.70;;
19828;SDS011;10075;50.924;4.396;2023-05-01T06:22:55;8.75;;;6.30;;
19828;SDS011;10075;50.924;4.396;2023-05-01T06:25:22;9.57;;;6.32;;
19828;SDS011;10075;50.924;4.396;2023-05-01T06:27:49;8.65;;;5.88;;
19828;SDS011;10075;50.924;4.396;2023-05-01T06:30:16;7.03;;;6.22;;
19828;SDS011;10075;50.924;4.396;2023-05-01T06:32:45;10.07;;;7.43;;
19828;SDS011;10075;50.924;4.396;2023-05-01T06:35:12;9.20;;;6.40;;
19828;SDS011;10075;50.924;4.396;2023-05-01T06:37:39;12.38;;;6.43;;
19828;SDS011;10075;50.924;4.396;2023-05-01T06:40:08;9.60;;;6.10;;
19828;SDS011;10075;50.924;4.396;2023-05-01T06:42:36;7.70;;;6.20;;
19828;SDS011;10075;50.924;4.396;2023-05-01T06:45:04;9.70;;;6.53;;
19828;SDS011;10075;50.924;4.396;2023-05-01T06:47:32;7.63;;;6.82;;
19828;SDS011;10075;50.924;4.396;2023-05-01T06:49:59;7.93;;;6.95;;
19828;SDS011;10075;50.924;4.396;2023-05-01T06:52:26;10.02;;;8.13;;
19828;SDS011;10075;50.924;4.396;2023-05-01T06:54:53;9.73;;;8.55;;
19828;SDS011;10075;50.924;4.396;2023-05-01T06:57:22;10.57;;;8.80;;
19828;SDS011;10075;50.924;4.396;2023-05-01T06:59:49;10.57;;;9.48;;
19828;SDS011;10075;50.924;4.396;2023-05-01T07:02:16;13.18;;;10.43;;
19828;SDS011;10075;50.924;4.396;2023-05-01T07:04:43;14.48;;;11.43;;
19828;SDS011;10075;50.924;4.396;2023-05-01T07:07:10;14.93;;;11.80;;
19828;SDS011;10075;50.924;4.396;2023-05-01T07:09:37;12.88;;;10.38;;
19828;SDS011;10075;50.924;4.396;2023-05-01T07:12:05;14.85;;;12.60;;
19828;SDS011;10075;50.924;4.396;2023-05-01T07:14:34;15.07;;;13.02;;
19828;SDS011;10075;50.924;4.396;2023-05-01T07:17:01;16.15;;;14.20;;
19828;SDS011;10075;50.924;4.396;2023-05-01T07:19:29;17.77;;;15.35;;
19828;SDS011;10075;50.924;4.396;2023-05-01T07:21:56;19.02;;;17.02;;
19828;SDS011;10075;50.924;4.396;2023-05-01T07:24:24;20.80;;;17.80;;
19828;SDS011;10075;50.924;4.396;2023-05-01T07:26:51;21.25;;;18.98;;
19828;SDS011;10075;50.924;4.396;2023-05-01T07:29:18;21.05;;;18.85;;
19828;SDS011;10075;50.924;4.396;2023-05-01T07:31:46;25.38;;;19.83;;
19828;SDS011;10075;50.924;4.396;2023-05-01T07:34:13;23.15;;;20.40;;
19828;SDS011;10075;50.924;4.396;2023-05-01T07:36:41;27.15;;;20.85;;
19828;SDS011;10075;50.924;4.396;2023-05-01T07:39:08;24.73;;;20.98;;
19828;SDS011;10075;50.924;4.396;2023-05-01T07:41:35;25.95;;;22.10;;
19828;SDS011;10075;50.924;4.396;2023-05-01T07:44:02;26.20;;;21.10;;
19828;SDS011;10075;50.924;4.396;2023-05-01T07:46:29;27.77;;;22.20;;
19828;SDS011;10075;50.924;4.396;2023-05-01T07:48:58;27.17;;;22.88;;
19828;SDS011;10075;50.924;4.396;2023-05-01T07:51:25;27.38;;;22.55;;
19828;SDS011;10075;50.924;4.396;2023-05-01T07:53:51;30.33;;;24.33;;
19828;SDS011;10075;50.924;4.396;2023-05-01T07:56:18;28.00;;;24.73;;
19828;SDS011;10075;50.924;4.396;2023-05-01T07:58:45;32.13;;;26.83;;
19828;SDS011;10075;50.924;4.396;2023-05-01T08:01:12;33.00;;;25.35;;
19828;SDS011;10075;50.924;4.396;2023-05-01T08:03:39;32.08;;;27.65;;
19828;SDS011;10075;50.924;4.396;2023-05-01T08:06:08;35.63;;;29.45;;
19828;SDS011;10075;50.924;4.396;2023-05-01T08:08:35;36.78;;;29.13;;
19828;SDS011;10075;50.924;4.396;2023-05-01T08:11:02;39.67;;;31.08;;
19828;SDS011;10075;50.924;4.396;2023-05-01T08:13:29;39.38;;;30.20;;
19828;SDS011;10075;50.924;4.396;2023-05-01T08:15:59;41.05;;;33.33;;
19828;SDS011;10075;50.924;4.396;2023-05-01T08:18:27;43.97;;;33.85;;
19828;SDS011;10075;50.924;4.396;2023-05-01T08:20:54;41.55;;;32.95;;
19828;SDS011;10075;50.924;4.396;2023-05-01T08:23:22;46.97;;;35.35;;
19828;SDS011;10075;50.924;4.396;2023-05-01T08:25:50;47.25;;;36.63;;
19828;SDS011;10075;50.924;4.396;2023-05-01T08:28:17;48.53;;;38.28;;
19828;SDS011;10075;50.924;4.396;2023-05-01T08:30:45;47.80;;;37.75;;
19828;SDS011;10075;50.924;4.396;2023-05-01T08:33:14;51.33;;;38.05;;
19828;SDS011;10075;50.924;4.396;2023-05-01T08:35:41;50.05;;;38.35;;
19828;SDS011;10075;50.924;4.396;2023-05-01T08:38:09;56.33;;;38.38;;
19828;SDS011;10075;50.924;4.396;2023-05-01T08:40:38;48.78;;;36.78;;
19828;SDS011;10075;50.924;4.396;2023-05-01T08:43:09;46.72;;;33.35;;
19828;SDS011;10075;50.924;4.396;2023-05-01T08:45:37;49.58;;;37.55;;
19828;SDS011;10075;50.924;4.396;2023-05-01T08:48:05;38.95;;;29.67;;
19828;SDS011;10075;50.924;4.396;2023-05-01T08:50:33;41.85;;;34.65;;
19828;SDS011;10075;50.924;4.396;2023-05-01T08:53:02;44.67;;;34.67;;
19828;SDS011;10075;50.924;4.396;2023-05-01T08:55:30;46.75;;;35.97;;
19828;SDS011;10075;50.924;4.396;2023-05-01T08:57:59;49.05;;;36.67;;
19828;SDS011;10075;50.924;4.396;2023-05-01T09:00:28;47.33;;;37.53;;
19828;SDS011;10075;50.924;4.396;2023-05-01T09:02:58;48.28;;;34.35;;
19828;SDS011;10075;50.924;4.396;2023-05-01T09:05:27;48.00;;;36.15;;
19828;SDS011;10075;50.924;4.396;2023-05-01T09:07:56;46.80;;;34.42;;
19828;SDS011;10075;50.924;4.396;2023-05-01T09:10:24;47.70;;;37.05;;
19828;SDS011;10075;50.924;4.396;2023-05-01T09:12:53;51.40;;;38.20;;
19828;SDS011;10075;50.924;4.396;2023-05-01T09:15:24;46.63;;;36.67;;
19828;SDS011;10075;50.924;4.396;2023-05-01T09:17:51;47.00;;;37.55;;
19828;SDS011;10075;50.924;4.396;2023-05-01T09:20:19;51.95;;;37.72;;
19828;SDS011;10075;50.924;4.396;2023-05-01T09:22:48;49.55;;;37.45;;
19828;SDS011;10075;50.924;4.396;2023-05-01T09:25:15;50.78;;;38.15;;
19828;SDS011;10075;50.924;4.396;2023-05-01T09:27:43;49.33;;;37.22;;
19828;SDS011;10075;50.924;4.396;2023-05-01T09:30:14;51.85;;;37.28;;
19828;SDS011;10075;50.924;4.396;2023-05-01T09:33:06;51.25;;;37.22;;
19828;SDS011;10075;50.924;4.396;2023-05-01T09:35:47;50.35;;;37.45;;
19828;SDS011;10075;50.924;4.396;2023-05-01T09:38:18;51.00;;;36.10;;
19828;SDS011;10075;50.924;4.396;2023-05-01T09:40:46;50.00;;;37.95;;
19828;SDS011;10075;50.924;4.396;2023-05-01T09:43:15;50.35;;;37.30;;
19828;SDS011;10075;50.924;4.396;2023-05-01T09:46:02;48.58;;;35.33;;
19828;SDS011;10075;50.924;4.396;2023-05-01T09:48:30;49.83;;;34.55;;
19828;SDS011;10075;50.924;4.396;2023-05-01T09:50:58;49.30;;;36.03;;
19828;SDS011;10075;50.924;4.396;2023-05-01T09:53:38;44.80;;;29.83;;
19828;SDS011;10075;50.924;4.396;2023-05-01T09:56:06;49.22;;;35.10;;
19828;SDS011;10075;50.924;4.396;2023-05-01T09:58:33;44.80;;;32.70;;
19828;SDS011;10075;50.924;4.396;2023-05-01T10:01:01;46.42;;;32.50;;
19828;SDS011;10075;50.924;4.396;2023-05-01T10:03:29;47.92;;;33.88;;
19828;SDS011;10075;50.924;4.396;2023-05-01T10:05:56;45.65;;;33.10;;
19828;SDS011;10075;50.924;4.396;2023-05-01T10:08:26;42.33;;;32.90;;
19828;SDS011;10075;50.924;4.396;2023-05-01T10:11:08;46.85;;;31.92;;
19828;SDS011;10075;50.924;4.396;2023-05-01T10:13:35;43.67;;;32.17;;
19828;SDS011;10075;50.924;4.396;2023-05-01T10:16:04;43.50;;;30.25;;
19828;SDS011;10075;50.924;4.396;2023-05-01T10:18:33;39.72;;;29.70;;
19828;SDS011;10075;50.924;4.396;2023-05-01T10:21:02;45.60;;;30.38;;
19828;SDS011;10075;50.924;4.396;2023-05-01T10:23:30;41.40;;;32.15;;
19828;SDS011;10075;50.924;4.396;2023-05-01T10:25:58;45.33;;;31.60;;
19828;SDS011;10075;50.924;4.396;2023-05-01T10:28:28;41.78;;;31.30;;
19828;SDS011;10075;50.924;4.396;2023-05-01T10:30:55;44.40;;;31.33;;
19828;SDS011;10075;50.924;4.396;2023-05-01T10:33:24;40.53;;;32.05;;
19828;SDS011;10075;50.924;4.396;2023-05-01T10:35:53;40.53;;;30.23;;
19828;SDS011;10075;50.924;4.396;2023-05-01T10:38:24;40.10;;;28.80;;
19828;SDS011;10075;50.924;4.396;2023-05-01T10:40:59;47.33;;;30.83;;
19828;SDS011;10075;50.924;4.396;2023-05-01T10:43:26;40.97;;;31.00;;
19828;SDS011;10075;50.924;4.396;2023-05-01T10:48:56;45.08;;;32.80;;
19828;SDS011;10075;50.924;4.396;2023-05-01T10:51:24;48.22;;;34.85;;
19828;SDS011;10075;50.924;4.396;2023-05-01T10:56:52;38.47;;;28.90;;
19828;SDS011;10075;50.924;4.396;2023-05-01T10:59:20;41.35;;;32.95;;
19828;SDS011;10075;50.924;4.396;2023-05-01T11:01:47;38.75;;;29.65;;
19828;SDS011;10075;50.924;4.396;2023-05-01T11:07:15;38.25;;;28.30;;
19828;SDS011;10075;50.924;4.396;2023-05-01T11:09:43;36.45;;;27.92;;
19828;SDS011;10075;50.924;4.396;2023-05-01T11:12:11;35.33;;;28.98;;
19828;SDS011;10075;50.924;4.396;2023-05-01T11:17:45;34.63;;;26.90;;
19828;SDS011;10075;50.924;4.396;2023-05-01T11:23:17;29.13;;;23.48;;
19828;SDS011;10075;50.924;4.396;2023-05-01T11:25:49;33.03;;;24.23;;
19828;SDS011;10075;50.924;4.396;2023-05-01T11:28:28;33.40;;;25.42;;
19828;SDS011;10075;50.924;4.396;2023-05-01T11:30:57;32.97;;;23.63;;
19828;SDS011;10075;50.924;4.396;2023-05-01T11:33:25;32.05;;;24.77;;
19828;SDS011;10075;50.924;4.396;2023-05-01T11:36:00;30.85;;;24.05;;
19828;SDS011;10075;50.924;4.396;2023-05-01T11:38:28;35.38;;;25.55;;
19828;SDS011;10075;50.924;4.396;2023-05-01T11:40:59;36.88;;;25.83;;
19828;SDS011;10075;50.924;4.396;2023-05-01T11:43:28;38.28;;;26.75;;
19828;SDS011;10075;50.924;4.396;2023-05-01T11:45:55;37.55;;;26.90;;
19828;SDS011;10075;50.924;4.396;2023-05-01T11:48:28;38.58;;;25.13;;
19828;SDS011;10075;50.924;4.396;2023-05-01T11:50:55;38.33;;;23.42;;
19828;SDS011;10075;50.924;4.396;2023-05-01T11:53:24;32.08;;;21.05;;
19828;SDS011;10075;50.924;4.396;2023-05-01T11:55:51;36.40;;;22.25;;
19828;SDS011;10075;50.924;4.396;2023-05-01T11:58:29;35.40;;;20.17;;
19828;SDS011;10075;50.924;4.396;2023-05-01T12:01:00;19.75;;;14.52;;
19828;SDS011;10075;50.924;4.396;2023-05-01T12:03:27;21.33;;;13.02;;
19828;SDS011;10075;50.924;4.396;2023-05-01T12:06:05;23.40;;;15.63;;
19828;SDS011;10075;50.924;4.396;2023-05-01T12:08:33;20.27;;;14.23;;
19828;SDS011;10075;50.924;4.396;2023-05-01T12:11:00;25.40;;;17.80;;
19828;SDS011;10075;50.924;4.396;2023-05-01T12:13:28;29.17;;;20.33;;
19828;SDS011;10075;50.924;4.396;2023-05-01T12:15:55;27.55;;;20.98;;
19828;SDS011;10075;50.924;4.396;2023-05-01T12:18:24;24.73;;;18.95;;
19828;SDS011;10075;50.924;4.396;2023-05-01T12:20:52;24.55;;;16.95;;
19828;SDS011;10075;50.924;4.396;2023-05-01T12:23:28;27.65;;;18.33;;
19828;SDS011;10075;50.924;4.396;2023-05-01T12:25:58;25.85;;;17.13;;
19828;SDS011;10075;50.924;4.396;2023-05-01T12:28:27;20.52;;;15.80;;
19828;SDS011;10075;50.924;4.396;2023-05-01T12:30:58;18.42;;;14.70;;
19828;SDS011;10075;50.924;4.396;2023-05-01T12:33:27;18.45;;;12.90;;
19828;SDS011;10075;50.924;4.396;2023-05-01T12:35:54;16.85;;;11.95;;
19828;SDS011;10075;50.924;4.396;2023-05-01T12:38:33;21.17;;;15.80;;
19828;SDS011;10075;50.924;4.396;2023-05-01T12:41:02;16.05;;;13.35;;
19828;SDS011;10075;50.924;4.396;2023-05-01T12:43:31;19.75;;;13.95;;
19828;SDS011;10075;50.924;4.396;2023-05-01T12:45:59;16.95;;;12.48;;
19828;SDS011;10075;50.924;4.396;2023-05-01T12:48:27;17.10;;;13.88;;
19828;SDS011;10075;50.924;4.396;2023-05-01T12:50:55;15.68;;;12.55;;
19828;SDS011;10075;50.924;4.396;2023-05-01T12:53:23;15.98;;;13.25;;
19828;SDS011;10075;50.924;4.396;2023-05-01T12:55:54;17.77;;;13.68;;
19828;SDS011;10075;50.924;4.396;2023-05-01T12:58:23;16.08;;;12.32;;
19828;SDS011;10075;50.924;4.396;2023-05-01T13:01:00;16.02;;;13.38;;
19828;SDS011;10075;50.924;4.396;2023-05-01T13:03:28;16.77;;;12.77;;
19828;SDS011;10075;50.924;4.396;2023-05-01T13:05:56;15.25;;;13.10;;
19828;SDS011;10075;50.924;4.396;2023-05-01T13:08:24;17.83;;;13.48;;
19828;SDS011;10075;50.924;4.396;2023-05-01T13:10:53;17.25;;;12.27;;
19828;SDS011;10075;50.924;4.396;2023-05-01T13:13:27;15.90;;;13.88;;
19828;SDS011;10075;50.924;4.396;2023-05-01T13:16:02;17.67;;;13.43;;
19828;SDS011;10075;50.924;4.396;2023-05-01T13:18:31;17.67;;;14.10;;
19828;SDS011;10075;50.924;4.396;2023-05-01T13:21:08;18.65;;;14.60;;
19828;SDS011;10075;50.924;4.396;2023-05-01T13:23:37;18.25;;;13.93;;
19828;SDS011;10075;50.924;4.396;2023-05-01T13:26:04;17.67;;;12.40;;
19828;SDS011;10075;50.924;4.396;2023-05-01T13:28:34;16.13;;;12.65;;
19828;SDS011;10075;50.924;4.396;2023-05-01T13:31:03;19.15;;;15.93;;
19828;SDS011;10075;50.924;4.396;2023-05-01T13:33:38;24.40;;;15.52;;
19828;SDS011;10075;50.924;4.396;2023-05-01T13:36:07;21.95;;;16.92;;
19828;SDS011;10075;50.924;4.396;2023-05-01T13:38:40;19.85;;;14.35;;
19828;SDS011;10075;50.924;4.396;2023-05-01T13:41:13;17.42;;;14.70;;
19828;SDS011;10075;50.924;4.396;2023-05-01T13:43:43;16.80;;;13.98;;
19828;SDS011;10075;50.924;4.396;2023-05-01T13:46:11;18.23;;;13.65;;
19828;SDS011;10075;50.924;4.396;2023-05-01T13:48:39;16.98;;;13.82;;
19828;SDS011;10075;50.924;4.396;2023-05-01T13:51:06;16.77;;;12.88;;
19828;SDS011;10075;50.924;4.396;2023-05-01T13:53:34;18.10;;;14.77;;
19828;SDS011;10075;50.924;4.396;2023-05-01T13:56:02;18.15;;;13.65;;
19828;SDS011;10075;50.924;4.396;2023-05-01T13:58:29;17.80;;;14.80;;
19828;SDS011;10075;50.924;4.396;2023-05-01T14:00:59;17.60;;;13.13;;
19828;SDS011;10075;50.924;4.396;2023-05-01T14:03:28;18.05;;;15.82;;
19828;SDS011;10075;50.924;4.396;2023-05-01T14:05:56;21.63;;;15.52;;
19828;SDS011;10075;50.924;4.396;2023-05-01T14:08:24;15.32;;;12.25;;
19828;SDS011;10075;50.924;4.396;2023-05-01T14:10:54;19.90;;;15.50;;
19828;SDS011;10075;50.924;4.396;2023-05-01T14:13:23;20.05;;;15.95;;
19828;SDS011;10075;50.924;4.396;2023-05-01T14:15:52;25.58;;;18.00;;
19828;SDS011;10075;50.924;4.396;2023-05-01T14:18:21;18.95;;;15.23;;
19828;SDS011;10075;50.924;4.396;2023-05-01T14:20:47;22.85;;;14.98;;
19828;SDS011;10075;50.924;4.396;2023-05-01T14:23:15;19.95;;;16.13;;
19828;SDS011;10075;50.924;4.396;2023-05-01T14:25:44;24.05;;;16.63;;
19828;SDS011;10075;50.924;4.396;2023-05-01T14:28:14;19.13;;;16.17;;
19828;SDS011;10075;50.924;4.396;2023-05-01T14:30:41;21.55;;;15.77;;
19828;SDS011;10075;50.924;4.396;2023-05-01T14:33:09;20.27;;;16.48;;
19828;SDS011;10075;50.924;4.396;2023-05-01T14:35:42;17.67;;;13.75;;
19828;SDS011;10075;50.924;4.396;2023-05-01T14:38:14;18.20;;;14.10;;
19828;SDS011;10075;50.924;4.396;2023-05-01T14:40:43;16.15;;;13.50;;
19828;SDS011;10075;50.924;4.396;2023-05-01T14:43:12;17.90;;;13.75;;
19828;SDS011;10075;50.924;4.396;2023-05-01T14:45:41;20.60;;;14.93;;
19828;SDS011;10075;50.924;4.396;2023-05-01T14:48:09;19.95;;;16.73;;
19828;SDS011;10075;50.924;4.396;2023-05-01T14:50:44;19.27;;;15.05;;
19828;SDS011;10075;50.924;4.396;2023-05-01T14:53:11;20.67;;;16.38;;
19828;SDS011;10075;50.924;4.396;2023-05-01T14:55:39;18.50;;;15.57;;
19828;SDS011;10075;50.924;4.396;2023-05-01T14:58:07;18.48;;;15.20;;